Polis 139 9970 — SFC7681 — position and weather

sailwx.info

Track history (hours):
 
Tides and Currents Weather Stations Pressure Air Temp Water Temp Dewpoint Dewpoint Depression Visibility Wind Speed Wind Dir Waves Ship Positions

Polis 139 9970

Last reported at 2015-Apr-21 22:33 UTC. Time now 2015-Apr-21 23:27 UTC.
Position N 59°19' E 018°10'.

Length 16 m.

Type: Law enforcement. MMSI: 265565250.

Date/timePositionNaut miles runAvg speedWind from/ knotsBaromVisibWave heightAir tempDewpointWater temp
2015-Apr-21 22:33N 59°19' E 018°10'0 0.0
2015-Apr-21 21:33N 59°19' E 018°10'0 0.0
2015-Apr-21 20:33N 59°19' E 018°10'0 0.0
2015-Apr-21 19:34N 59°19' E 018°10'2 0.8
2015-Apr-21 17:04N 59°20' E 018°13'2 4.0
2015-Apr-21 16:33N 59°19' E 018°10'0 0.0
2015-Apr-21 15:33N 59°19' E 018°10'0 0.0
2015-Apr-21 14:33N 59°19' E 018°10'0 0.0
2015-Apr-21 13:33N 59°19' E 018°10'0 0.0
2015-Apr-21 12:33N 59°19' E 018°10'0 0.0
2015-Apr-21 11:33N 59°19' E 018°10'0 0.0
2015-Apr-21 10:33N 59°19' E 018°10'0 0.0
2015-Apr-21 09:33N 59°19' E 018°10'0 0.0
2015-Apr-21 08:33N 59°19' E 018°10'0 0.0
2015-Apr-21 07:33N 59°19' E 018°10'0 0.0
2015-Apr-21 06:33N 59°19' E 018°10'0 0.0
2015-Apr-21 05:33N 59°19' E 018°10'0 0.0
2015-Apr-21 04:33N 59°19' E 018°10'0 0.0
2015-Apr-21 03:33N 59°19' E 018°10'0 0.0
2015-Apr-21 02:33N 59°19' E 018°10'0 0.0
2015-Apr-21 01:33N 59°19' E 018°10'0 0.0
2015-Apr-21 00:33N 59°19' E 018°10'0 0.0
2015-Apr-20 23:33N 59°19' E 018°10'0 0.0
2015-Apr-20 22:33N 59°19' E 018°10'0 0.0
2015-Apr-20 21:33N 59°19' E 018°10'0 0.0
2015-Apr-20 20:33N 59°19' E 018°10'0 0.0
2015-Apr-20 19:32N 59°19' E 018°10'0 0.0
2015-Apr-20 18:33N 59°19' E 018°10'0 0.0
2015-Apr-20 17:33N 59°19' E 018°10'0 0.0
2015-Apr-20 16:33N 59°19' E 018°10'0 0.0
2015-Apr-20 15:33N 59°19' E 018°10'0 0.0
2015-Apr-20 14:33N 59°19' E 018°10'0 0.0
2015-Apr-20 13:33N 59°19' E 018°10'2 0.7
2015-Apr-20 11:06N 59°20' E 018°12'3 6.0
2015-Apr-20 10:33N 59°19' E 018°06'2 1.7
2015-Apr-20 09:33N 59°19' E 018°10'0 0.0
2015-Apr-20 08:33N 59°19' E 018°10'0 0.0
2015-Apr-20 07:33N 59°19' E 018°10'0 0.0
2015-Apr-20 06:33N 59°19' E 018°10'0 0.0
2015-Apr-20 05:33N 59°19' E 018°10'0 0.0
2015-Apr-20 04:33N 59°19' E 018°10'0 0.0
2015-Apr-20 03:33N 59°19' E 018°10'0 0.0
2015-Apr-20 02:33N 59°19' E 018°10'0 0.0
2015-Apr-20 01:33N 59°19' E 018°10'0 0.0
2015-Apr-20 00:33N 59°19' E 018°10'0 0.0
2015-Apr-19 23:33N 59°19' E 018°10'0 0.0
2015-Apr-19 22:33N 59°19' E 018°10'0 0.0
2015-Apr-19 21:33N 59°19' E 018°10'0 0.0
2015-Apr-19 20:33N 59°19' E 018°10'0 0.0
2015-Apr-19 19:33N 59°19' E 018°10'0 0.0
2015-Apr-19 18:33N 59°19' E 018°10'0 0.0
2015-Apr-19 17:33N 59°19' E 018°10'2 2.3
2015-Apr-19 16:33N 59°19' E 018°05'0 0.4
2015-Apr-19 15:33N 59°19' E 018°05'0 0.1
2015-Apr-19 14:33N 59°19' E 018°05'1 0.7
2015-Apr-19 13:33N 59°19' E 018°06'2 1.9
2015-Apr-19 12:33N 59°19' E 018°10'0 0.4
2015-Apr-19 11:33N 59°19' E 018°09'0 0.0
2015-Apr-19 10:33N 59°19' E 018°09'2 0.1
2015-Apr-18 19:33N 59°20' E 018°12'1 1.2
2015-Apr-18 18:33N 59°19' E 018°10'0 0.4
2015-Apr-18 17:33N 59°19' E 018°09'0 0.0
2015-Apr-18 16:33N 59°19' E 018°09'0 0.1
2015-Apr-18 15:34N 59°19' E 018°09'0 0.0
2015-Apr-18 14:33N 59°19' E 018°09'2 1.8
2015-Apr-18 13:33N 59°19' E 018°06'2 2.1
2015-Apr-18 12:33N 59°19' E 018°10'0 0.4
2015-Apr-18 11:33N 59°19' E 018°09'0 0.1
2015-Apr-18 10:33N 59°19' E 018°09'0 0.0
2015-Apr-18 09:33N 59°19' E 018°09'0 0.0
2015-Apr-17 16:33N 59°19' E 018°10'1 0.6
2015-Apr-17 15:33N 59°19' E 018°09'0 0.4
2015-Apr-17 14:33N 59°19' E 018°10'0 0.0
2015-Apr-17 13:33N 59°19' E 018°10'0 0.3
2015-Apr-17 12:33N 59°19' E 018°09'0 0.0
2015-Apr-17 11:33N 59°19' E 018°09'0 0.0
2015-Apr-17 10:33N 59°19' E 018°09'0 0.4
2015-Apr-17 09:33N 59°19' E 018°10'0 0.0
2015-Apr-17 08:32N 59°19' E 018°10'0 0.0
2015-Apr-17 07:33N 59°19' E 018°10'0 0.0
2015-Apr-17 06:23N 59°19' E 018°10'0 0.0
2015-Apr-17 05:31N 59°19' E 018°10'0 0.0
2015-Apr-17 04:29N 59°19' E 018°10'0 0.0
2015-Apr-17 03:32N 59°19' E 018°10'0 0.0
2015-Apr-17 02:30N 59°19' E 018°10'0 0.0
2015-Apr-17 01:33N 59°19' E 018°10'0 0.0
2015-Apr-17 00:33N 59°19' E 018°10'0 0.0
2015-Apr-16 23:33N 59°19' E 018°10'0 0.0
2015-Apr-16 22:19N 59°19' E 018°10'0 0.0
2015-Apr-16 21:33N 59°19' E 018°10'0 0.0
2015-Apr-16 20:31N 59°19' E 018°10'0 0.0
2015-Apr-16 19:33N 59°19' E 018°10'0 0.4
2015-Apr-16 18:34N 59°19' E 018°09'2 0.5
2015-Apr-16 14:22N 59°20' E 018°12'2 2.1
2015-Apr-16 13:33N 59°19' E 018°10'0 0.0
2015-Apr-16 12:33N 59°19' E 018°10'0 0.0
2015-Apr-16 11:33N 59°19' E 018°10'0 0.0
2015-Apr-16 10:33N 59°19' E 018°10'0 0.0
2015-Apr-16 09:33N 59°19' E 018°10'1 0.7
2015-Apr-16 08:33N 59°20' E 018°10'1 0.1
2015-Apr-15 16:14N 59°20' E 018°13'2 3.0
2015-Apr-15 15:33N 59°19' E 018°10'4 4.1
2015-Apr-15 14:33N 59°20' E 018°02'4 4.1
2015-Apr-15 13:33N 59°19' E 018°10'0 0.0
2015-Apr-15 12:33N 59°19' E 018°10'0 0.0
2015-Apr-15 11:33N 59°19' E 018°10'0 0.4
2015-Apr-15 10:33N 59°20' E 018°10'0 0.0
2015-Apr-14 18:33N 59°19' E 018°10'0 0.0
2015-Apr-14 17:33N 59°19' E 018°10'1 0.8
2015-Apr-14 16:26N 59°19' E 018°08'1 1.0
2015-Apr-14 15:31N 59°19' E 018°10'0 0.0
2015-Apr-14 14:34N 59°19' E 018°10'0 0.0
2015-Apr-14 13:33N 59°19' E 018°10'2 2.2
2015-Apr-14 12:30N 59°21' E 018°07'1 1.4
2015-Apr-14 11:33N 59°20' E 018°06'2 2.2
2015-Apr-14 10:33N 59°19' E 018°10'0 0.0
2015-Apr-14 09:33N 59°19' E 018°10'2 0.7
2015-Apr-14 07:11N 59°20' E 018°12'2 2.9
2015-Apr-14 06:33N 59°19' E 018°10'0 0.0
2015-Apr-14 05:25N 59°19' E 018°10'0 0.0
2015-Apr-14 04:30N 59°19' E 018°10'0 0.0
2015-Apr-14 03:32N 59°19' E 018°10'0 0.0
2015-Apr-14 02:32N 59°19' E 018°10'0 0.0
2015-Apr-14 01:31N 59°19' E 018°10'0 0.0
2015-Apr-14 00:33N 59°19' E 018°10'0 0.0
2015-Apr-13 23:14N 59°19' E 018°10'0 0.0
2015-Apr-13 22:33N 59°19' E 018°10'0 0.0
2015-Apr-13 21:10N 59°19' E 018°10'0 0.0
2015-Apr-13 20:25N 59°19' E 018°10'0 0.0
2015-Apr-13 19:22N 59°19' E 018°10'0 0.0
2015-Apr-13 18:31N 59°19' E 018°10'0 0.0
2015-Apr-13 17:20N 59°19' E 018°10'0 0.0
2015-Apr-13 16:33N 59°19' E 018°10'0 0.0
2015-Apr-13 15:32N 59°19' E 018°10'0 0.0
2015-Apr-13 14:33N 59°19' E 018°10'0 0.0
2015-Apr-13 13:33N 59°19' E 018°10'0 0.0
2015-Apr-13 12:32N 59°19' E 018°10'0 0.0
2015-Apr-13 11:30N 59°19' E 018°10'0 0.0
2015-Apr-13 10:24N 59°19' E 018°10'0 0.0
2015-Apr-13 09:33N 59°19' E 018°10'0 0.0
2015-Apr-13 08:32N 59°19' E 018°10'0 0.0
2015-Apr-13 07:15N 59°19' E 018°10'0 0.0
2015-Apr-13 06:33N 59°19' E 018°10'0 0.0
2015-Apr-13 05:33N 59°19' E 018°10'0 0.0
2015-Apr-13 04:33N 59°19' E 018°10'0 0.0
2015-Apr-13 03:33N 59°19' E 018°10'0 0.0
2015-Apr-13 02:33N 59°19' E 018°10'0 0.0
2015-Apr-13 01:33N 59°19' E 018°10'0 0.0
2015-Apr-13 00:33N 59°19' E 018°10'0 0.0
2015-Apr-12 23:33N 59°19' E 018°10'0 0.0
2015-Apr-12 22:33N 59°19' E 018°10'0 0.0
2015-Apr-12 21:32N 59°19' E 018°10'0 0.0
2015-Apr-12 20:33N 59°19' E 018°10'0 0.0
2015-Apr-12 19:33N 59°19' E 018°10'0 0.0
2015-Apr-12 18:33N 59°19' E 018°10'0 0.0
2015-Apr-12 17:33N 59°19' E 018°10'2 1.9
2015-Apr-12 16:33N 59°19' E 018°06'3 2.8
2015-Apr-12 15:33N 59°19' E 018°01'2 1.2
2015-Apr-12 13:33N 59°19' E 017°56'6 6.0
2015-Apr-12 12:33N 59°19' E 018°08'1 0.9
2015-Apr-12 11:33N 59°19' E 018°10'0 0.0
2015-Apr-12 10:33N 59°19' E 018°10'0 0.0
2015-Apr-12 09:33N 59°19' E 018°10'0 0.0
2015-Apr-12 08:33N 59°19' E 018°10'0 0.0
2015-Apr-12 07:33N 59°19' E 018°10'0 0.0
2015-Apr-12 06:33N 59°19' E 018°10'0 0.0
2015-Apr-12 05:33N 59°19' E 018°10'0 0.0
2015-Apr-12 04:33N 59°19' E 018°10'0 0.0
2015-Apr-12 03:33N 59°19' E 018°10'0 0.0
2015-Apr-12 02:33N 59°19' E 018°10'0 0.0
2015-Apr-12 01:33N 59°19' E 018°10'0 0.0
2015-Apr-12 00:33N 59°19' E 018°10'0 0.0
2015-Apr-11 23:32N 59°19' E 018°10'  
Track history (hours):
 
Tides and Currents Weather Stations Pressure Air Temp Water Temp Dewpoint Dewpoint Depression Visibility Wind Speed Wind Dir Waves Ship Positions

Polis 139 9970

Last reported at 2015-Apr-21 22:33 UTC. Time now 2015-Apr-21 23:27 UTC.
Position N 59°19' E 018°10'.

Length 16 m.

Type: Law enforcement. MMSI: 265565250.

Date/timePositionNaut miles runAvg speedWind from/ knotsBaromVisibWave heightAir tempDewpointWater temp
2015-Apr-21 22:33N 59°19' E 018°10'0 0.0
2015-Apr-21 21:33N 59°19' E 018°10'0 0.0
2015-Apr-21 20:33N 59°19' E 018°10'0 0.0
2015-Apr-21 19:34N 59°19' E 018°10'2 0.8
2015-Apr-21 17:04N 59°20' E 018°13'2 4.0
2015-Apr-21 16:33N 59°19' E 018°10'0 0.0
2015-Apr-21 15:33N 59°19' E 018°10'0 0.0
2015-Apr-21 14:33N 59°19' E 018°10'0 0.0
2015-Apr-21 13:33N 59°19' E 018°10'0 0.0
2015-Apr-21 12:33N 59°19' E 018°10'0 0.0
2015-Apr-21 11:33N 59°19' E 018°10'0 0.0
2015-Apr-21 10:33N 59°19' E 018°10'0 0.0
2015-Apr-21 09:33N 59°19' E 018°10'0 0.0
2015-Apr-21 08:33N 59°19' E 018°10'0 0.0
2015-Apr-21 07:33N 59°19' E 018°10'0 0.0
2015-Apr-21 06:33N 59°19' E 018°10'0 0.0
2015-Apr-21 05:33N 59°19' E 018°10'0 0.0
2015-Apr-21 04:33N 59°19' E 018°10'0 0.0
2015-Apr-21 03:33N 59°19' E 018°10'0 0.0
2015-Apr-21 02:33N 59°19' E 018°10'0 0.0
2015-Apr-21 01:33N 59°19' E 018°10'0 0.0
2015-Apr-21 00:33N 59°19' E 018°10'0 0.0
2015-Apr-20 23:33N 59°19' E 018°10'0 0.0
2015-Apr-20 22:33N 59°19' E 018°10'0 0.0
2015-Apr-20 21:33N 59°19' E 018°10'0 0.0
2015-Apr-20 20:33N 59°19' E 018°10'0 0.0
2015-Apr-20 19:32N 59°19' E 018°10'0 0.0
2015-Apr-20 18:33N 59°19' E 018°10'0 0.0
2015-Apr-20 17:33N 59°19' E 018°10'0 0.0
2015-Apr-20 16:33N 59°19' E 018°10'0 0.0
2015-Apr-20 15:33N 59°19' E 018°10'0 0.0
2015-Apr-20 14:33N 59°19' E 018°10'0 0.0
2015-Apr-20 13:33N 59°19' E 018°10'2 0.7
2015-Apr-20 11:06N 59°20' E 018°12'3 6.0
2015-Apr-20 10:33N 59°19' E 018°06'2 1.7
2015-Apr-20 09:33N 59°19' E 018°10'0 0.0
2015-Apr-20 08:33N 59°19' E 018°10'0 0.0
2015-Apr-20 07:33N 59°19' E 018°10'0 0.0
2015-Apr-20 06:33N 59°19' E 018°10'0 0.0
2015-Apr-20 05:33N 59°19' E 018°10'0 0.0
2015-Apr-20 04:33N 59°19' E 018°10'0 0.0
2015-Apr-20 03:33N 59°19' E 018°10'0 0.0
2015-Apr-20 02:33N 59°19' E 018°10'0 0.0
2015-Apr-20 01:33N 59°19' E 018°10'0 0.0
2015-Apr-20 00:33N 59°19' E 018°10'0 0.0
2015-Apr-19 23:33N 59°19' E 018°10'0 0.0
2015-Apr-19 22:33N 59°19' E 018°10'0 0.0
2015-Apr-19 21:33N 59°19' E 018°10'0 0.0
2015-Apr-19 20:33N 59°19' E 018°10'0 0.0
2015-Apr-19 19:33N 59°19' E 018°10'0 0.0
2015-Apr-19 18:33N 59°19' E 018°10'0 0.0
2015-Apr-19 17:33N 59°19' E 018°10'2 2.3
2015-Apr-19 16:33N 59°19' E 018°05'0 0.4
2015-Apr-19 15:33N 59°19' E 018°05'0 0.1
2015-Apr-19 14:33N 59°19' E 018°05'1 0.7
2015-Apr-19 13:33N 59°19' E 018°06'2 1.9
2015-Apr-19 12:33N 59°19' E 018°10'0 0.4
2015-Apr-19 11:33N 59°19' E 018°09'0 0.0
2015-Apr-19 10:33N 59°19' E 018°09'2 0.1
2015-Apr-18 19:33N 59°20' E 018°12'1 1.2
2015-Apr-18 18:33N 59°19' E 018°10'0 0.4
2015-Apr-18 17:33N 59°19' E 018°09'0 0.0
2015-Apr-18 16:33N 59°19' E 018°09'0 0.1
2015-Apr-18 15:34N 59°19' E 018°09'0 0.0
2015-Apr-18 14:33N 59°19' E 018°09'2 1.8
2015-Apr-18 13:33N 59°19' E 018°06'2 2.1
2015-Apr-18 12:33N 59°19' E 018°10'0 0.4
2015-Apr-18 11:33N 59°19' E 018°09'0 0.1
2015-Apr-18 10:33N 59°19' E 018°09'0 0.0
2015-Apr-18 09:33N 59°19' E 018°09'0 0.0
2015-Apr-17 16:33N 59°19' E 018°10'1 0.6
2015-Apr-17 15:33N 59°19' E 018°09'0 0.4
2015-Apr-17 14:33N 59°19' E 018°10'0 0.0
2015-Apr-17 13:33N 59°19' E 018°10'0 0.3
2015-Apr-17 12:33N 59°19' E 018°09'0 0.0
2015-Apr-17 11:33N 59°19' E 018°09'0 0.0
2015-Apr-17 10:33N 59°19' E 018°09'0 0.4
2015-Apr-17 09:33N 59°19' E 018°10'0 0.0
2015-Apr-17 08:32N 59°19' E 018°10'0 0.0
2015-Apr-17 07:33N 59°19' E 018°10'0 0.0
2015-Apr-17 06:23N 59°19' E 018°10'0 0.0
2015-Apr-17 05:31N 59°19' E 018°10'0 0.0
2015-Apr-17 04:29N 59°19' E 018°10'0 0.0
2015-Apr-17 03:32N 59°19' E 018°10'0 0.0
2015-Apr-17 02:30N 59°19' E 018°10'0 0.0
2015-Apr-17 01:33N 59°19' E 018°10'0 0.0
2015-Apr-17 00:33N 59°19' E 018°10'0 0.0
2015-Apr-16 23:33N 59°19' E 018°10'0 0.0
2015-Apr-16 22:19N 59°19' E 018°10'0 0.0
2015-Apr-16 21:33N 59°19' E 018°10'0 0.0
2015-Apr-16 20:31N 59°19' E 018°10'0 0.0
2015-Apr-16 19:33N 59°19' E 018°10'0 0.4
2015-Apr-16 18:34N 59°19' E 018°09'2 0.5
2015-Apr-16 14:22N 59°20' E 018°12'2 2.1
2015-Apr-16 13:33N 59°19' E 018°10'0 0.0
2015-Apr-16 12:33N 59°19' E 018°10'0 0.0
2015-Apr-16 11:33N 59°19' E 018°10'0 0.0
2015-Apr-16 10:33N 59°19' E 018°10'0 0.0
2015-Apr-16 09:33N 59°19' E 018°10'1 0.7
2015-Apr-16 08:33N 59°20' E 018°10'1 0.1
2015-Apr-15 16:14N 59°20' E 018°13'2 3.0
2015-Apr-15 15:33N 59°19' E 018°10'4 4.1
2015-Apr-15 14:33N 59°20' E 018°02'4 4.1
2015-Apr-15 13:33N 59°19' E 018°10'0 0.0
2015-Apr-15 12:33N 59°19' E 018°10'0 0.0
2015-Apr-15 11:33N 59°19' E 018°10'0 0.4
2015-Apr-15 10:33N 59°20' E 018°10'0 0.0
2015-Apr-14 18:33N 59°19' E 018°10'0 0.0
2015-Apr-14 17:33N 59°19' E 018°10'1 0.8
2015-Apr-14 16:26N 59°19' E 018°08'1 1.0
2015-Apr-14 15:31N 59°19' E 018°10'0 0.0
2015-Apr-14 14:34N 59°19' E 018°10'0 0.0
2015-Apr-14 13:33N 59°19' E 018°10'2 2.2
2015-Apr-14 12:30N 59°21' E 018°07'1 1.4
2015-Apr-14 11:33N 59°20' E 018°06'2 2.2
2015-Apr-14 10:33N 59°19' E 018°10'0 0.0
2015-Apr-14 09:33N 59°19' E 018°10'2 0.7
2015-Apr-14 07:11N 59°20' E 018°12'2 2.9
2015-Apr-14 06:33N 59°19' E 018°10'0 0.0
2015-Apr-14 05:25N 59°19' E 018°10'0 0.0
2015-Apr-14 04:30N 59°19' E 018°10'0 0.0
2015-Apr-14 03:32N 59°19' E 018°10'0 0.0
2015-Apr-14 02:32N 59°19' E 018°10'0 0.0
2015-Apr-14 01:31N 59°19' E 018°10'0 0.0
2015-Apr-14 00:33N 59°19' E 018°10'0 0.0
2015-Apr-13 23:14N 59°19' E 018°10'0 0.0
2015-Apr-13 22:33N 59°19' E 018°10'0 0.0
2015-Apr-13 21:10N 59°19' E 018°10'0 0.0
2015-Apr-13 20:25N 59°19' E 018°10'0 0.0
2015-Apr-13 19:22N 59°19' E 018°10'0 0.0
2015-Apr-13 18:31N 59°19' E 018°10'0 0.0
2015-Apr-13 17:20N 59°19' E 018°10'0 0.0
2015-Apr-13 16:33N 59°19' E 018°10'0 0.0
2015-Apr-13 15:32N 59°19' E 018°10'0 0.0
2015-Apr-13 14:33N 59°19' E 018°10'0 0.0
2015-Apr-13 13:33N 59°19' E 018°10'0 0.0
2015-Apr-13 12:32N 59°19' E 018°10'0 0.0
2015-Apr-13 11:30N 59°19' E 018°10'0 0.0
2015-Apr-13 10:24N 59°19' E 018°10'0 0.0
2015-Apr-13 09:33N 59°19' E 018°10'0 0.0
2015-Apr-13 08:32N 59°19' E 018°10'0 0.0
2015-Apr-13 07:15N 59°19' E 018°10'0 0.0
2015-Apr-13 06:33N 59°19' E 018°10'0 0.0
2015-Apr-13 05:33N 59°19' E 018°10'0 0.0
2015-Apr-13 04:33N 59°19' E 018°10'0 0.0
2015-Apr-13 03:33N 59°19' E 018°10'0 0.0
2015-Apr-13 02:33N 59°19' E 018°10'0 0.0
2015-Apr-13 01:33N 59°19' E 018°10'0 0.0
2015-Apr-13 00:33N 59°19' E 018°10'0 0.0
2015-Apr-12 23:33N 59°19' E 018°10'0 0.0
2015-Apr-12 22:33N 59°19' E 018°10'0 0.0
2015-Apr-12 21:32N 59°19' E 018°10'0 0.0
2015-Apr-12 20:33N 59°19' E 018°10'0 0.0
2015-Apr-12 19:33N 59°19' E 018°10'0 0.0
2015-Apr-12 18:33N 59°19' E 018°10'0 0.0
2015-Apr-12 17:33N 59°19' E 018°10'2 1.9
2015-Apr-12 16:33N 59°19' E 018°06'3 2.8
2015-Apr-12 15:33N 59°19' E 018°01'2 1.2
2015-Apr-12 13:33N 59°19' E 017°56'6 6.0
2015-Apr-12 12:33N 59°19' E 018°08'1 0.9
2015-Apr-12 11:33N 59°19' E 018°10'0 0.0
2015-Apr-12 10:33N 59°19' E 018°10'0 0.0
2015-Apr-12 09:33N 59°19' E 018°10'0 0.0
2015-Apr-12 08:33N 59°19' E 018°10'0 0.0
2015-Apr-12 07:33N 59°19' E 018°10'0 0.0
2015-Apr-12 06:33N 59°19' E 018°10'0 0.0
2015-Apr-12 05:33N 59°19' E 018°10'0 0.0
2015-Apr-12 04:33N 59°19' E 018°10'0 0.0
2015-Apr-12 03:33N 59°19' E 018°10'0 0.0
2015-Apr-12 02:33N 59°19' E 018°10'0 0.0
2015-Apr-12 01:33N 59°19' E 018°10'0 0.0
2015-Apr-12 00:33N 59°19' E 018°10'0 0.0
2015-Apr-11 23:32N 59°19' E 018°10'  

Dump ship's entire track history